Santa Barbara, CA (93101)

12:38 AM PDT on August 04, 2015 (GMT -0700)
Westside (Gillespie) | | Change Station
CLOSE
Current Station
Personal Weather Station
Location: Santa Barbara, CA
Elevation: 85 ft
Nearby Weather Stations
Active Advisory: Wind Advisory Active Notice: Record Report, Public Information Statement

Elev 85 ft 34.42 °N, 119.72 °W | Updated 15 seconds ago

Clear
Clear
64.8 °F
Feels Like 64.8 °F
N
0.0
Wind Variable Wind from South
Gusts 0.7 mph

Today
High -- | Low -- °F
--% Chance of Precip.
Yesterday
High -- | Low -- °F
Precip. -- in
6:11 AM 7:57 PM
Waning Gibbous, 80% visible
Pressure 29.86 in
Visibility 10.0 miles
Clouds Clear
Dew Point 60 °F
Humidity 86%
Rainfall 0.00 in
Snow Depth Not available.
UV 0 out of 12
Pollen 5.60 out of 12
Air Quality Not available.
Flu Activity Not available.
METAR KSBA 040653Z AUTO 05004KT 10SM CLR 21/15 A2985 RMK AO2 SLP109 T02110150

More Conditions Fewer Conditions

Pressure 29.86 in
Visibility 10.0 miles
Clouds Clear
Dew Point 60 °F
Humidity 86%
Rainfall 0.00 in
Snow Depth Not available.
UV 0 out of 12
Pollen 5.60 out of 12
Air Quality Not available.
Flu Activity Not available.
METAR KSBA 040653Z AUTO 05004KT 10SM CLR 21/15 A2985 RMK AO2 SLP109 T02110150

More Conditions Fewer Conditions

10-Day Weather Forecast

×

Almanac

Astronomy

Aug. 04, 2015 Rise Set
Actual Time
Civil Twilight
Nautical Twilight
Astronomical Twilight
Moon
Length of Visible Light
Length of Day
Tomorrow will be .
, % of the Moon is Illuminated

Today's Extremes

State Highs State Lows

Community

WunderPhotos

Upload Photos

1,843,877 photos uploaded!

WunderBlogs® & News

Nearby

Air Quality

  Air Quality AQ Index Pollutant
Not available.

Snow Depth

Station Depth Elevation

Earthquake Activity

City Distance Mag. Time & Date
Minimum magnitude displayed is 2.5.

Coastal Water Temperatures

Place Temperature

Stations

Nearby Weather Stations

Station Location Temp. Windchill Dew Point Humidity Wind Precip. Elev Updated Type
                   
Wind Advisory
Statement as of 6:38 PM PDT on August 03, 2015

... Wind Advisory in effect until 3 am PDT Tuesday...

The National Weather Service in Los Angeles/Oxnard has issued a
Wind Advisory... which is in effect until 3 am PDT Tuesday.

* Timing... strongest winds will be this evening.

* Winds... areas of northwest to north winds 20 to 30 mph with
local gusts up to 45 mph. Strongest winds western
portions... especially near Gaviota and Refugio.

* Impacts... major roadways that could be affected include Highway
101... especially between Goleta and Gaviota... as well as Highway
154 near San Marcos Pass.

Precautionary/preparedness actions...

When driving... use extra caution. Be prepared for sudden gusty
cross winds.



Gomberg/jld